Nordic Currents — CFN4326 — position and weather

sailwx.info

Track history (hours):
 
Tides and Currents Weather Stations Pressure Air Temp Water Temp Dewpoint Dewpoint Depression Visibility Wind Speed Wind Dir Waves Ship Positions

Nordic Currents

Last reported at 2016-May-29 02:07 UTC. Time now 2016-May-29 07:38 UTC.
Position N 50°54' W 127°18'.

Type: Pleasure craft. MMSI: 316010421.

Date/timePositionNaut miles runAvg speedWind from/ knotsBaromVisibWave heightAir tempDewpointWater temp
2016-May-29 02:07N 50°54' W 127°18'0 0.2
2016-May-29 01:11N 50°54' W 127°17'3 3.6
2016-May-29 00:28N 50°54' W 127°21'7 7.9
2016-May-28 23:33N 50°58' W 127°31'7 6.5
2016-May-28 22:31N 51°05' W 127°31'4 4.1
2016-May-28 21:33N 51°04' W 127°25'1 1.0
2016-May-28 20:07N 51°04' W 127°23'0 0.0
2016-May-28 19:19N 51°04' W 127°23'0 0.0
2016-May-28 18:13N 51°04' W 127°23'0 0.0
2016-May-28 15:25N 51°04' W 127°23'0 0.0
2016-May-28 14:25N 51°04' W 127°23'0 0.0
2016-May-28 10:07N 51°04' W 127°23'0 0.0
2016-May-28 09:31N 51°04' W 127°23'0 0.0
2016-May-28 08:07N 51°04' W 127°23'0 0.0
2016-May-28 07:31N 51°04' W 127°23'0 0.0
2016-May-28 06:31N 51°04' W 127°23'0 0.0
2016-May-28 05:31N 51°04' W 127°23'0 0.0
2016-May-28 04:30N 51°04' W 127°23'0 0.0
2016-May-28 03:30N 51°04' W 127°23'0 0.0
2016-May-28 02:30N 51°04' W 127°23'0 0.0
2016-May-28 01:30N 51°04' W 127°23'0 0.0
2016-May-28 00:30N 51°04' W 127°23'0 0.0
2016-May-27 23:30N 51°04' W 127°23'0 0.0
2016-May-27 22:24N 51°04' W 127°23'3 3.8
2016-May-27 21:33N 51°05' W 127°27'3 3.1
2016-May-27 20:29N 51°07' W 127°32'5 5.3
2016-May-27 19:27N 51°08' W 127°23'7 7.1
2016-May-27 18:32N 51°08' W 127°13'  
2016-May-24 20:33N 51°08' W 127°17'6 5.6
2016-May-24 19:30N 51°10' W 127°25'2 1.9
2016-May-24 18:29N 51°10' W 127°28'0 0.0
2016-May-24 13:29N 51°10' W 127°28'0 0.0
2016-May-24 11:28N 51°10' W 127°28'0 0.0
2016-May-24 09:28N 51°10' W 127°28'0 0.0
2016-May-24 07:29N 51°10' W 127°28'0 0.0
2016-May-24 06:22N 51°10' W 127°28'0 0.0
2016-May-24 04:22N 51°10' W 127°28'0 0.0
2016-May-24 03:26N 51°10' W 127°28'0 0.0
2016-May-23 23:17N 51°10' W 127°28'0 0.0
2016-May-23 19:32N 51°10' W 127°28'2 1.7
2016-May-23 18:32N 51°08' W 127°29'2 2.0
2016-May-23 17:31N 51°06' W 127°29'7 7.2
2016-May-23 16:34N 51°02' W 127°20'2 1.9
2016-May-23 15:32N 51°02' W 127°17'0 0.0
2016-May-23 14:32N 51°02' W 127°17'0 0.0
2016-May-23 12:26N 51°02' W 127°17'0 0.0
2016-May-23 11:32N 51°02' W 127°17'0 0.0
2016-May-23 10:32N 51°02' W 127°17'0 0.0
2016-May-23 09:32N 51°02' W 127°17'0 0.0
2016-May-23 07:33N 51°02' W 127°17'0 0.0
2016-May-23 06:23N 51°02' W 127°17'0 0.0
2016-May-23 05:29N 51°02' W 127°17'0 0.0
2016-May-23 04:20N 51°02' W 127°17'0 0.0
2016-May-23 03:14N 51°02' W 127°17'0 0.0
2016-May-23 00:26N 51°02' W 127°17'0 0.0
2016-May-22 23:14N 51°02' W 127°17'0 0.0
2016-May-22 22:26N 51°02' W 127°17'0 0.0
2016-May-22 21:05N 51°02' W 127°17'0 0.0
2016-May-22 20:29N 51°02' W 127°17'0 0.0
2016-May-22 19:23N 51°02' W 127°17'0 0.0
2016-May-22 18:23N 51°02' W 127°17'0 0.0
2016-May-22 17:23N 51°02' W 127°17'0 0.0
2016-May-22 14:20N 51°02' W 127°17'0 0.0
2016-May-22 13:32N 51°02' W 127°17'0 0.0
2016-May-22 12:32N 51°02' W 127°17'0 0.0
2016-May-22 11:32N 51°02' W 127°17'0 0.0
2016-May-22 10:32N 51°02' W 127°17'0 0.0
2016-May-22 09:32N 51°02' W 127°17'0 0.0
2016-May-22 08:26N 51°02' W 127°17'0 0.0
2016-May-22 07:26N 51°02' W 127°17'0 0.0
2016-May-22 06:32N 51°02' W 127°17'0 0.0
2016-May-22 05:26N 51°02' W 127°17'0 0.0
2016-May-22 03:32N 51°02' W 127°17'0 0.0
2016-May-22 02:08N 51°02' W 127°17'0 0.0
2016-May-22 00:20N 51°02' W 127°17'0 0.0
2016-May-21 23:26N 51°02' W 127°17'0 0.0
2016-May-21 21:23N 51°02' W 127°17'0 0.0
2016-May-21 20:29N 51°02' W 127°17'0 0.0
2016-May-21 19:29N 51°02' W 127°17'0 0.0
2016-May-21 18:29N 51°02' W 127°17'0 0.0
2016-May-21 17:29N 51°02' W 127°17'0 0.0
2016-May-21 16:29N 51°02' W 127°17'0 0.0
2016-May-21 15:23N 51°02' W 127°17'0 0.0
2016-May-21 14:23N 51°02' W 127°17'0 0.0
2016-May-21 13:29N 51°02' W 127°17'0 0.0
2016-May-21 12:29N 51°02' W 127°17'0 0.0
2016-May-21 11:29N 51°02' W 127°17'0 0.0
2016-May-21 10:29N 51°02' W 127°17'0 0.0
2016-May-21 09:29N 51°02' W 127°17'0 0.0
2016-May-21 08:23N 51°02' W 127°17'0 0.0
2016-May-21 07:17N 51°02' W 127°17'0 0.0
2016-May-21 06:29N 51°02' W 127°17'0 0.0
2016-May-21 05:29N 51°02' W 127°17'0 0.0
2016-May-21 04:29N 51°02' W 127°17'0 0.0
2016-May-21 03:29N 51°02' W 127°17'0 0.0
2016-May-21 02:29N 51°02' W 127°17'0 0.0
2016-May-21 01:29N 51°02' W 127°17'0 0.0
2016-May-21 00:23N 51°02' W 127°17'0 0.0
2016-May-20 23:29N 51°02' W 127°17'0 0.0
2016-May-20 22:29N 51°02' W 127°17'0 0.0
2016-May-20 21:23N 51°02' W 127°17'0 0.0
2016-May-20 20:11N 51°02' W 127°17'0 0.0
2016-May-20 19:29N 51°02' W 127°17'1 1.5
2016-May-20 18:33N 51°02' W 127°19'6 6.1
2016-May-20 17:31N 51°05' W 127°28'3 3.0
2016-May-20 16:29N 51°03' W 127°31'1 0.5
2016-May-20 15:06N 51°03' W 127°30'0 0.0
2016-May-20 06:24N 51°03' W 127°30'0 0.0
2016-May-20 04:30N 51°03' W 127°30'0 0.0
2016-May-20 03:18N 51°03' W 127°30'0 0.0
2016-May-20 02:24N 51°03' W 127°30'0 0.0
2016-May-20 01:30N 51°03' W 127°30'0 0.0
2016-May-20 00:30N 51°03' W 127°30'0 0.0
2016-May-19 23:12N 51°03' W 127°30'0 0.0
2016-May-19 22:30N 51°03' W 127°30'0 0.2
2016-May-19 20:28N 51°03' W 127°31'5 5.1
2016-May-19 19:33N 50°58' W 127°32'5 4.6
2016-May-19 18:33N 50°54' W 127°28'5 4.9
2016-May-19 17:33N 50°50' W 127°24'  
Track history (hours):
 
Tides and Currents Weather Stations Pressure Air Temp Water Temp Dewpoint Dewpoint Depression Visibility Wind Speed Wind Dir Waves Ship Positions

Nordic Currents

Last reported at 2016-May-29 02:07 UTC. Time now 2016-May-29 07:38 UTC.
Position N 50°54' W 127°18'.

Type: Pleasure craft. MMSI: 316010421.

Date/timePositionNaut miles runAvg speedWind from/ knotsBaromVisibWave heightAir tempDewpointWater temp
2016-May-29 02:07N 50°54' W 127°18'0 0.2
2016-May-29 01:11N 50°54' W 127°17'3 3.6
2016-May-29 00:28N 50°54' W 127°21'7 7.9
2016-May-28 23:33N 50°58' W 127°31'7 6.5
2016-May-28 22:31N 51°05' W 127°31'4 4.1
2016-May-28 21:33N 51°04' W 127°25'1 1.0
2016-May-28 20:07N 51°04' W 127°23'0 0.0
2016-May-28 19:19N 51°04' W 127°23'0 0.0
2016-May-28 18:13N 51°04' W 127°23'0 0.0
2016-May-28 15:25N 51°04' W 127°23'0 0.0
2016-May-28 14:25N 51°04' W 127°23'0 0.0
2016-May-28 10:07N 51°04' W 127°23'0 0.0
2016-May-28 09:31N 51°04' W 127°23'0 0.0
2016-May-28 08:07N 51°04' W 127°23'0 0.0
2016-May-28 07:31N 51°04' W 127°23'0 0.0
2016-May-28 06:31N 51°04' W 127°23'0 0.0
2016-May-28 05:31N 51°04' W 127°23'0 0.0
2016-May-28 04:30N 51°04' W 127°23'0 0.0
2016-May-28 03:30N 51°04' W 127°23'0 0.0
2016-May-28 02:30N 51°04' W 127°23'0 0.0
2016-May-28 01:30N 51°04' W 127°23'0 0.0
2016-May-28 00:30N 51°04' W 127°23'0 0.0
2016-May-27 23:30N 51°04' W 127°23'0 0.0
2016-May-27 22:24N 51°04' W 127°23'3 3.8
2016-May-27 21:33N 51°05' W 127°27'3 3.1
2016-May-27 20:29N 51°07' W 127°32'5 5.3
2016-May-27 19:27N 51°08' W 127°23'7 7.1
2016-May-27 18:32N 51°08' W 127°13'  
2016-May-24 20:33N 51°08' W 127°17'6 5.6
2016-May-24 19:30N 51°10' W 127°25'2 1.9
2016-May-24 18:29N 51°10' W 127°28'0 0.0
2016-May-24 13:29N 51°10' W 127°28'0 0.0
2016-May-24 11:28N 51°10' W 127°28'0 0.0
2016-May-24 09:28N 51°10' W 127°28'0 0.0
2016-May-24 07:29N 51°10' W 127°28'0 0.0
2016-May-24 06:22N 51°10' W 127°28'0 0.0
2016-May-24 04:22N 51°10' W 127°28'0 0.0
2016-May-24 03:26N 51°10' W 127°28'0 0.0
2016-May-23 23:17N 51°10' W 127°28'0 0.0
2016-May-23 19:32N 51°10' W 127°28'2 1.7
2016-May-23 18:32N 51°08' W 127°29'2 2.0
2016-May-23 17:31N 51°06' W 127°29'7 7.2
2016-May-23 16:34N 51°02' W 127°20'2 1.9
2016-May-23 15:32N 51°02' W 127°17'0 0.0
2016-May-23 14:32N 51°02' W 127°17'0 0.0
2016-May-23 12:26N 51°02' W 127°17'0 0.0
2016-May-23 11:32N 51°02' W 127°17'0 0.0
2016-May-23 10:32N 51°02' W 127°17'0 0.0
2016-May-23 09:32N 51°02' W 127°17'0 0.0
2016-May-23 07:33N 51°02' W 127°17'0 0.0
2016-May-23 06:23N 51°02' W 127°17'0 0.0
2016-May-23 05:29N 51°02' W 127°17'0 0.0
2016-May-23 04:20N 51°02' W 127°17'0 0.0
2016-May-23 03:14N 51°02' W 127°17'0 0.0
2016-May-23 00:26N 51°02' W 127°17'0 0.0
2016-May-22 23:14N 51°02' W 127°17'0 0.0
2016-May-22 22:26N 51°02' W 127°17'0 0.0
2016-May-22 21:05N 51°02' W 127°17'0 0.0
2016-May-22 20:29N 51°02' W 127°17'0 0.0
2016-May-22 19:23N 51°02' W 127°17'0 0.0
2016-May-22 18:23N 51°02' W 127°17'0 0.0
2016-May-22 17:23N 51°02' W 127°17'0 0.0
2016-May-22 14:20N 51°02' W 127°17'0 0.0
2016-May-22 13:32N 51°02' W 127°17'0 0.0
2016-May-22 12:32N 51°02' W 127°17'0 0.0
2016-May-22 11:32N 51°02' W 127°17'0 0.0
2016-May-22 10:32N 51°02' W 127°17'0 0.0
2016-May-22 09:32N 51°02' W 127°17'0 0.0
2016-May-22 08:26N 51°02' W 127°17'0 0.0
2016-May-22 07:26N 51°02' W 127°17'0 0.0
2016-May-22 06:32N 51°02' W 127°17'0 0.0
2016-May-22 05:26N 51°02' W 127°17'0 0.0
2016-May-22 03:32N 51°02' W 127°17'0 0.0
2016-May-22 02:08N 51°02' W 127°17'0 0.0
2016-May-22 00:20N 51°02' W 127°17'0 0.0
2016-May-21 23:26N 51°02' W 127°17'0 0.0
2016-May-21 21:23N 51°02' W 127°17'0 0.0
2016-May-21 20:29N 51°02' W 127°17'0 0.0
2016-May-21 19:29N 51°02' W 127°17'0 0.0
2016-May-21 18:29N 51°02' W 127°17'0 0.0
2016-May-21 17:29N 51°02' W 127°17'0 0.0
2016-May-21 16:29N 51°02' W 127°17'0 0.0
2016-May-21 15:23N 51°02' W 127°17'0 0.0
2016-May-21 14:23N 51°02' W 127°17'0 0.0
2016-May-21 13:29N 51°02' W 127°17'0 0.0
2016-May-21 12:29N 51°02' W 127°17'0 0.0
2016-May-21 11:29N 51°02' W 127°17'0 0.0
2016-May-21 10:29N 51°02' W 127°17'0 0.0
2016-May-21 09:29N 51°02' W 127°17'0 0.0
2016-May-21 08:23N 51°02' W 127°17'0 0.0
2016-May-21 07:17N 51°02' W 127°17'0 0.0
2016-May-21 06:29N 51°02' W 127°17'0 0.0
2016-May-21 05:29N 51°02' W 127°17'0 0.0
2016-May-21 04:29N 51°02' W 127°17'0 0.0
2016-May-21 03:29N 51°02' W 127°17'0 0.0
2016-May-21 02:29N 51°02' W 127°17'0 0.0
2016-May-21 01:29N 51°02' W 127°17'0 0.0
2016-May-21 00:23N 51°02' W 127°17'0 0.0
2016-May-20 23:29N 51°02' W 127°17'0 0.0
2016-May-20 22:29N 51°02' W 127°17'0 0.0
2016-May-20 21:23N 51°02' W 127°17'0 0.0
2016-May-20 20:11N 51°02' W 127°17'0 0.0
2016-May-20 19:29N 51°02' W 127°17'1 1.5
2016-May-20 18:33N 51°02' W 127°19'6 6.1
2016-May-20 17:31N 51°05' W 127°28'3 3.0
2016-May-20 16:29N 51°03' W 127°31'1 0.5
2016-May-20 15:06N 51°03' W 127°30'0 0.0
2016-May-20 06:24N 51°03' W 127°30'0 0.0
2016-May-20 04:30N 51°03' W 127°30'0 0.0
2016-May-20 03:18N 51°03' W 127°30'0 0.0
2016-May-20 02:24N 51°03' W 127°30'0 0.0
2016-May-20 01:30N 51°03' W 127°30'0 0.0
2016-May-20 00:30N 51°03' W 127°30'0 0.0
2016-May-19 23:12N 51°03' W 127°30'0 0.0
2016-May-19 22:30N 51°03' W 127°30'0 0.2
2016-May-19 20:28N 51°03' W 127°31'5 5.1
2016-May-19 19:33N 50°58' W 127°32'5 4.6
2016-May-19 18:33N 50°54' W 127°28'5 4.9
2016-May-19 17:33N 50°50' W 127°24'  

Dump ship's entire track history